Time;durP1;ratioP1;P1;durP2;ratioP2;P2;SDS_P1;SDS_P2;PMS_P1;PMS_P2;Temp;Humidity;BMP_temperature;BMP_pressure;BME280_temperature;BME280_humidity;BME280_pressure;Samples;Min_cycle;Max_cycle;Signal;HPM_P1;HPM_P2
2022/03/21 00:01:22;;;;;;;117.30;63.20;;;3.10;99.90;;;;;;5043772;28;20045;-48
2022/03/21 00:03:48;;;;;;;116.32;61.72;;;2.80;99.90;;;;;;5042114;28;20487;-47
2022/03/21 00:06:13;;;;;;;118.13;63.40;;;3.00;99.90;;;;;;5046862;28;20036;-51
2022/03/21 00:08:40;;;;;;;117.53;61.33;;;3.10;99.90;;;;;;5050576;28;20041;-50
2022/03/21 00:11:06;;;;;;;122.90;60.25;;;2.70;99.90;;;;;;5050568;28;20118;-47
2022/03/21 00:13:32;;;;;;;112.70;59.33;;;2.70;99.90;;;;;;5050208;28;20492;-47
2022/03/21 00:15:58;;;;;;;113.93;59.72;;;2.70;99.90;;;;;;5049290;28;20032;-51
2022/03/21 00:18:25;;;;;;;113.97;59.90;;;3.00;99.90;;;;;;5050221;28;20119;-48
2022/03/21 00:20:53;;;;;;;110.97;59.55;;;2.70;99.90;;;;;;5048386;28;20061;-49
2022/03/21 00:23:19;;;;;;;102.07;57.33;;;2.80;99.90;;;;;;5050141;28;20041;-48
2022/03/21 00:25:46;;;;;;;103.95;58.40;;;2.60;99.90;;;;;;5050477;28;20036;-48
2022/03/21 00:28:11;;;;;;;108.50;59.08;;;3.00;99.90;;;;;;5050267;28;20087;-46
2022/03/21 00:30:40;;;;;;;103.15;56.70;;;2.60;99.90;;;;;;5050240;28;20492;-45
2022/03/21 00:33:06;;;;;;;101.68;56.95;;;2.60;99.90;;;;;;5049792;28;20041;-47
2022/03/21 00:35:32;;;;;;;106.10;57.42;;;2.60;99.90;;;;;;5050028;28;20033;-47
2022/03/21 00:37:58;;;;;;;104.10;57.67;;;2.70;99.90;;;;;;5049638;28;20037;-46
2022/03/21 00:40:24;;;;;;;107.30;57.50;;;2.60;99.90;;;;;;5047552;28;20897;-44
2022/03/21 00:42:50;;;;;;;104.25;55.70;;;2.40;99.90;;;;;;5048395;28;20029;-49
2022/03/21 00:45:22;;;;;;;101.00;56.13;;;2.70;99.90;;;;;;5048588;28;20120;-48
2022/03/21 00:47:49;;;;;;;104.40;57.97;;;2.70;99.90;;;;;;5048769;28;20048;-46
2022/03/21 00:50:17;;;;;;;106.50;58.22;;;2.80;99.90;;;;;;5051025;28;20057;-49
2022/03/21 00:52:51;;;;;;;106.35;57.85;;;2.30;99.90;;;;;;5052538;28;20040;-45
2022/03/21 00:55:19;;;;;;;96.85;55.08;;;2.70;99.90;;;;;;5052381;28;20060;-48
2022/03/21 00:57:45;;;;;;;101.82;55.67;;;2.70;99.90;;;;;;5052999;28;20443;-46
2022/03/21 01:00:17;;;;;;;94.82;54.85;;;2.60;99.90;;;;;;5053855;28;20416;-46
2022/03/21 01:02:42;;;;;;;105.55;57.30;;;2.30;99.90;;;;;;5053779;28;20357;-49
2022/03/21 01:05:10;;;;;;;102.75;57.40;;;2.60;99.90;;;;;;5050817;28;20052;-47
2022/03/21 01:07:37;;;;;;;101.03;57.70;;;2.20;99.90;;;;;;5052514;28;20049;-49
2022/03/21 01:10:04;;;;;;;92.63;54.45;;;2.50;99.90;;;;;;5050887;28;20045;-46
2022/03/21 01:12:31;;;;;;;102.18;58.22;;;2.40;99.90;;;;;;5052351;28;20565;-46
2022/03/21 01:14:57;;;;;;;104.18;58.50;;;2.40;99.90;;;;;;5050997;28;20369;-47
2022/03/21 01:17:23;;;;;;;106.03;58.50;;;2.60;99.90;;;;;;5052071;28;20052;-47
2022/03/21 01:19:49;;;;;;;106.32;57.83;;;2.20;99.90;;;;;;5050029;28;20033;-48
2022/03/21 01:22:15;;;;;;;110.53;57.72;;;2.20;99.90;;;;;;5052759;28;20029;-47
2022/03/21 01:24:41;;;;;;;107.35;59.67;;;2.40;99.90;;;;;;5048664;28;20045;-45
2022/03/21 01:27:06;;;;;;;100.00;56.10;;;2.10;99.90;;;;;;5051387;28;20040;-46
2022/03/21 01:29:33;;;;;;;103.50;57.10;;;2.10;99.90;;;;;;5048691;28;20034;-45
2022/03/21 01:31:59;;;;;;;110.22;59.40;;;2.20;99.90;;;;;;5050285;28;20375;-46
2022/03/21 01:34:25;;;;;;;103.15;57.15;;;2.40;99.90;;;;;;5051746;28;20040;-48
2022/03/21 01:36:51;;;;;;;114.85;62.17;;;2.40;99.90;;;;;;5052667;28;20087;-44
2022/03/21 01:39:17;;;;;;;105.95;59.85;;;2.50;99.90;;;;;;5053151;28;20068;-45
2022/03/21 01:41:42;;;;;;;114.95;59.63;;;2.10;99.90;;;;;;5052748;28;20048;-50
2022/03/21 01:44:09;;;;;;;112.43;61.30;;;2.30;99.90;;;;;;5050260;28;20029;-48
2022/03/21 01:46:36;;;;;;;108.90;60.53;;;2.30;99.90;;;;;;5048970;28;20045;-45
2022/03/21 01:49:05;;;;;;;116.47;62.47;;;2.20;99.90;;;;;;5050028;28;20033;-45
2022/03/21 01:51:32;;;;;;;114.35;61.75;;;2.10;99.90;;;;;;5051219;28;20057;-50
2022/03/21 01:56:45;;;;;;;120.40;63.47;;;2.10;99.90;;;;;;5053241;28;20492;-45
2022/03/21 01:59:12;;;;;;;123.50;64.60;;;2.10;99.90;;;;;;5052858;28;20096;-45
2022/03/21 02:01:39;;;;;;;116.70;62.33;;;2.40;99.90;;;;;;5050385;28;20036;-45
2022/03/21 02:04:05;;;;;;;131.07;68.07;;;2.20;99.90;;;;;;5051127;28;20037;-45
2022/03/21 02:06:32;;;;;;;135.40;70.20;;;2.40;99.90;;;;;;5048735;28;20060;-48
2022/03/21 02:08:59;;;;;;;134.73;69.10;;;2.50;99.90;;;;;;5051273;28;20076;-47
2022/03/21 02:11:29;;;;;;;145.05;71.55;;;2.60;99.90;;;;;;5052692;28;20103;-49
2022/03/21 02:13:56;;;;;;;150.48;71.68;;;2.50;99.90;;;;;;5052456;28;20039;-45
2022/03/21 02:16:24;;;;;;;156.98;74.85;;;3.00;99.90;;;;;;5052308;28;20362;-48
2022/03/21 02:18:50;;;;;;;157.73;76.10;;;2.40;99.90;;;;;;5052643;28;20488;-48
2022/03/21 02:21:57;;;;;;;160.75;74.57;;;2.70;99.90;;;;;;5049633;28;20094;-48
2022/03/21 02:25:01;;;;;;;155.07;73.88;;;2.70;99.90;;;;;;5043899;28;20045;-48
2022/03/21 02:27:30;;;;;;;152.43;74.68;;;2.50;99.90;;;;;;5052058;28;20396;-49
2022/03/21 02:29:57;;;;;;;156.07;76.78;;;2.50;99.90;;;;;;5052159;28;20098;-48
2022/03/21 02:32:24;;;;;;;168.32;78.90;;;2.50;99.90;;;;;;5067917;28;20044;-47
2022/03/21 02:34:50;;;;;;;162.30;78.03;;;2.70;99.90;;;;;;5067617;28;20484;-47
2022/03/21 02:37:18;;;;;;;162.77;75.97;;;2.40;99.90;;;;;;5052185;28;20116;-45
2022/03/21 02:39:49;;;;;;;167.77;80.95;;;2.50;99.90;;;;;;5051938;28;20115;-46
2022/03/21 02:42:14;;;;;;;168.55;78.45;;;2.50;99.90;;;;;;5050861;28;20136;-46
2022/03/21 02:44:40;;;;;;;181.05;81.43;;;2.50;99.90;;;;;;5049034;28;20124;-46
2022/03/21 02:47:08;;;;;;;163.50;77.63;;;2.70;99.90;;;;;;5050561;28;20411;-46
2022/03/21 02:49:33;;;;;;;167.73;77.70;;;2.50;99.90;;;;;;5051721;28;20123;-46
2022/03/21 02:52:01;;;;;;;167.13;76.80;;;2.90;99.90;;;;;;5051789;28;20127;-48
2022/03/21 02:54:27;;;;;;;147.32;71.70;;;2.50;99.90;;;;;;5050267;28;20588;-45
2022/03/21 02:56:54;;;;;;;152.07;72.63;;;2.90;99.90;;;;;;5051927;28;20043;-49
2022/03/21 02:59:20;;;;;;;148.20;70.30;;;2.90;99.90;;;;;;5050875;28;20099;-45
2022/03/21 03:01:45;;;;;;;153.45;73.45;;;2.40;99.90;;;;;;5051604;28;20045;-46
2022/03/21 03:04:11;;;;;;;149.50;71.13;;;2.70;99.90;;;;;;5048269;28;20028;-48
2022/03/21 03:06:40;;;;;;;142.50;70.40;;;2.60;99.90;;;;;;5050804;28;20040;-46
2022/03/21 03:09:09;;;;;;;148.15;68.80;;;2.30;99.90;;;;;;5051649;28;20039;-49
2022/03/21 03:11:38;;;;;;;144.65;68.18;;;2.70;99.90;;;;;;5048555;28;20044;-45
2022/03/21 03:14:08;;;;;;;137.15;66.32;;;2.40;99.90;;;;;;5050731;28;20075;-46
2022/03/21 03:16:34;;;;;;;150.32;71.90;;;2.40;99.90;;;;;;5048653;28;20564;-49
2022/03/21 03:19:00;;;;;;;141.20;70.07;;;2.60;99.90;;;;;;5050175;28;20377;-48
2022/03/21 03:21:28;;;;;;;144.82;70.13;;;2.20;99.90;;;;;;5051459;28;20040;-45
2022/03/21 03:23:56;;;;;;;143.68;66.57;;;2.40;99.90;;;;;;5051437;28;20029;-44
2022/03/21 03:26:22;;;;;;;135.15;66.65;;;2.50;99.90;;;;;;5051256;28;20532;-45
2022/03/21 03:28:48;;;;;;;143.57;66.55;;;2.60;99.90;;;;;;5051424;28;20164;-45
2022/03/21 03:31:15;;;;;;;136.73;64.28;;;2.60;99.90;;;;;;5049768;28;20485;-51
2022/03/21 03:33:42;;;;;;;140.30;63.33;;;2.40;99.90;;;;;;5050939;28;20033;-48
2022/03/21 03:36:08;;;;;;;130.75;64.60;;;2.30;99.90;;;;;;5050890;28;20032;-49
2022/03/21 03:38:33;;;;;;;129.80;63.00;;;2.70;99.90;;;;;;5049319;28;20060;-49
2022/03/21 03:40:59;;;;;;;142.80;63.67;;;2.70;99.90;;;;;;5050168;28;20396;-47
2022/03/21 03:43:26;;;;;;;131.45;61.50;;;2.30;99.90;;;;;;5048031;28;20040;-46
2022/03/21 03:45:52;;;;;;;125.30;59.95;;;2.30;99.90;;;;;;5050141;28;20041;-47
2022/03/21 03:48:21;;;;;;;130.38;60.83;;;2.30;99.90;;;;;;5050963;28;20033;-49
2022/03/21 03:50:47;;;;;;;127.82;60.22;;;2.50;99.90;;;;;;5049928;28;20144;-47
2022/03/21 03:53:14;;;;;;;133.63;60.00;;;2.30;99.90;;;;;;5049317;28;20174;-48
2022/03/21 03:55:39;;;;;;;135.85;60.20;;;2.20;99.90;;;;;;5050568;28;20036;-49
2022/03/21 03:58:05;;;;;;;131.07;60.83;;;2.50;99.90;;;;;;5050555;28;20045;-46
2022/03/21 04:00:31;;;;;;;132.45;57.85;;;2.60;99.90;;;;;;5049135;28;20825;-47
2022/03/21 04:05:41;;;;;;;122.63;56.88;;;2.20;99.90;;;;;;5050670;28;20064;-46
2022/03/21 04:08:07;;;;;;;119.10;55.03;;;2.30;99.90;;;;;;5047541;28;20033;-45
2022/03/21 04:10:33;;;;;;;122.97;58.03;;;2.40;99.90;;;;;;5049077;28;20090;-48
2022/03/21 04:12:59;;;;;;;117.95;56.17;;;2.20;99.90;;;;;;5049362;28;20044;-47
2022/03/21 04:15:25;;;;;;;114.38;55.40;;;2.20;99.90;;;;;;5049505;28;20167;-47
2022/03/21 04:17:52;;;;;;;119.03;56.20;;;2.60;99.90;;;;;;5050203;28;20045;-50
2022/03/21 04:20:18;;;;;;;115.32;54.75;;;2.70;99.90;;;;;;5050319;28;20048;-45
2022/03/21 04:22:43;;;;;;;116.57;55.00;;;2.60;99.90;;;;;;5030667;28;20480;-50
2022/03/21 04:25:10;;;;;;;116.80;55.05;;;2.50;99.90;;;;;;5048747;28;20099;-45
2022/03/21 04:27:37;;;;;;;114.43;55.03;;;2.30;99.90;;;;;;5050446;28;20080;-49
2022/03/21 04:30:04;;;;;;;120.25;55.47;;;2.60;99.90;;;;;;5050131;28;20037;-48
2022/03/21 04:32:30;;;;;;;109.53;52.40;;;2.30;99.90;;;;;;5049395;28;20048;-45
2022/03/21 04:34:56;;;;;;;102.45;50.60;;;2.40;99.90;;;;;;5048913;28;20044;-49
2022/03/21 04:37:21;;;;;;;109.10;53.33;;;2.50;99.90;;;;;;5050150;28;20049;-46
2022/03/21 04:39:47;;;;;;;107.75;50.40;;;2.20;99.90;;;;;;5049365;28;20041;-46
2022/03/21 04:42:13;;;;;;;104.00;50.90;;;2.20;99.90;;;;;;5047637;28;20060;-46
2022/03/21 04:44:39;;;;;;;104.93;51.33;;;1.90;99.90;;;;;;5050248;28;20037;-46
2022/03/21 04:47:06;;;;;;;110.50;50.28;;;1.90;99.90;;;;;;5048922;28;20045;-49
2022/03/21 04:49:32;;;;;;;104.53;50.33;;;2.40;99.90;;;;;;5049865;28;20084;-45
2022/03/21 04:51:58;;;;;;;100.88;50.50;;;1.80;99.90;;;;;;5048532;28;20077;-47
2022/03/21 04:54:27;;;;;;;105.18;51.05;;;1.80;99.90;;;;;;5049177;28;20049;-47
2022/03/21 04:56:53;;;;;;;100.47;48.92;;;1.80;99.90;;;;;;5049334;28;20045;-48
2022/03/21 04:59:19;;;;;;;97.97;48.63;;;2.10;99.90;;;;;;5049666;28;20053;-49
2022/03/21 05:01:44;;;;;;;102.70;49.40;;;1.70;99.90;;;;;;5046301;28;20039;-48
2022/03/21 05:04:10;;;;;;;105.63;50.65;;;2.10;99.90;;;;;;5049555;28;20040;-45
2022/03/21 05:06:36;;;;;;;107.63;51.05;;;2.10;99.90;;;;;;5050046;28;20037;-48
2022/03/21 05:09:03;;;;;;;107.35;51.58;;;2.10;99.90;;;;;;5049865;28;20063;-46
2022/03/21 05:11:29;;;;;;;110.07;51.22;;;2.00;99.90;;;;;;5050045;28;20430;-46
2022/03/21 05:13:56;;;;;;;104.75;49.15;;;2.20;99.90;;;;;;5047639;28;20044;-47
2022/03/21 05:16:22;;;;;;;107.65;50.97;;;2.00;99.90;;;;;;5047549;28;20053;-47
2022/03/21 05:18:49;;;;;;;105.45;48.72;;;2.20;99.90;;;;;;5049086;28;20037;-45
2022/03/21 05:21:16;;;;;;;98.53;47.45;;;1.90;99.90;;;;;;5048421;28;20113;-46
2022/03/21 05:31:54;;;;;;;89.50;45.88;;;2.40;99.90;;;;;;5048193;28;20047;-46
2022/03/21 05:37:04;;;;;;;96.20;45.72;;;2.00;99.90;;;;;;5052756;28;20153;-49
2022/03/21 05:39:30;;;;;;;86.40;41.53;;;2.40;99.90;;;;;;5048812;28;20437;-50
2022/03/21 05:41:56;;;;;;;83.85;41.25;;;2.10;99.90;;;;;;5052826;28;20079;-46
2022/03/21 05:44:24;;;;;;;87.00;42.67;;;1.90;99.90;;;;;;5052943;28;20044;-45
2022/03/21 05:46:51;;;;;;;86.03;42.38;;;2.20;99.90;;;;;;5050034;28;20539;-47
2022/03/21 05:49:17;;;;;;;86.28;41.88;;;2.10;99.90;;;;;;5052879;28;20136;-48
2022/03/21 05:51:43;;;;;;;86.80;41.35;;;2.40;99.90;;;;;;5051625;28;20074;-46
2022/03/21 05:54:13;;;;;;;84.05;41.53;;;2.40;99.90;;;;;;5052255;28;20044;-46
2022/03/21 05:56:40;;;;;;;86.75;40.75;;;2.10;99.90;;;;;;5051893;28;20442;-48
2022/03/21 06:01:58;;;;;;;85.75;41.95;;;2.00;99.90;;;;;;5050615;28;20048;-47
2022/03/21 06:04:24;;;;;;;83.63;41.83;;;2.00;99.90;;;;;;5052498;28;20051;-46
2022/03/21 06:06:50;;;;;;;88.28;42.63;;;2.00;99.90;;;;;;5051413;28;20041;-47
2022/03/21 06:09:15;;;;;;;89.95;44.38;;;2.40;99.90;;;;;;5052507;28;20098;-45
2022/03/21 06:11:42;;;;;;;92.00;45.67;;;2.20;99.90;;;;;;5051648;28;20037;-46
2022/03/21 06:14:09;;;;;;;91.63;45.05;;;2.20;99.90;;;;;;5051563;28;20045;-48
2022/03/21 06:16:35;;;;;;;90.60;43.25;;;2.40;99.90;;;;;;5050468;28;20044;-48
2022/03/21 06:19:01;;;;;;;87.13;43.45;;;2.10;99.90;;;;;;5051927;28;20069;-47
2022/03/21 06:21:30;;;;;;;92.43;44.70;;;2.60;99.90;;;;;;5052688;28;20130;-48
2022/03/21 06:23:56;;;;;;;88.00;43.42;;;2.20;99.90;;;;;;5050325;28;20041;-48
2022/03/21 06:26:22;;;;;;;89.90;42.47;;;2.20;99.90;;;;;;5052115;28;20048;-50
2022/03/21 06:28:48;;;;;;;86.07;42.70;;;2.70;99.90;;;;;;5052485;28;20419;-48
2022/03/21 06:31:14;;;;;;;87.82;42.38;;;2.70;99.90;;;;;;5052143;28;20037;-48
2022/03/21 06:33:40;;;;;;;90.57;43.40;;;2.30;99.90;;;;;;5051801;28;20028;-46
2022/03/21 06:36:07;;;;;;;95.43;43.92;;;2.40;99.90;;;;;;5052259;28;20033;-48
2022/03/21 06:38:33;;;;;;;89.43;43.88;;;2.80;99.90;;;;;;5051128;28;20041;-51
2022/03/21 06:40:59;;;;;;;91.10;44.70;;;2.60;99.90;;;;;;5052242;28;20082;-49
2022/03/21 06:43:26;;;;;;;85.53;41.95;;;2.40;99.90;;;;;;5049861;28;20041;-49
2022/03/21 06:45:54;;;;;;;84.30;42.53;;;3.00;99.90;;;;;;5051041;28;20080;-48
2022/03/21 06:48:21;;;;;;;85.38;42.50;;;2.70;99.90;;;;;;5049512;28;20076;-50
2022/03/21 06:50:48;;;;;;;89.55;43.97;;;2.80;99.90;;;;;;5050417;28;20056;-48
2022/03/21 06:53:14;;;;;;;81.00;42.33;;;2.90;99.90;;;;;;5052034;28;20052;-49
2022/03/21 06:55:41;;;;;;;84.28;42.38;;;3.00;99.90;;;;;;5051958;28;20036;-46
2022/03/21 06:58:09;;;;;;;84.00;43.53;;;2.80;99.90;;;;;;5050226;28;20045;-46
2022/03/21 07:00:34;;;;;;;91.07;44.85;;;3.30;99.90;;;;;;5051483;28;20052;-47
2022/03/21 07:03:00;;;;;;;87.93;43.65;;;3.40;99.90;;;;;;5050596;28;20041;-47
2022/03/21 07:05:28;;;;;;;84.38;42.53;;;3.20;99.90;;;;;;5050655;28;20041;-45
2022/03/21 07:07:54;;;;;;;91.53;43.47;;;3.00;99.90;;;;;;5051595;28;20044;-45
2022/03/21 07:10:20;;;;;;;93.72;44.15;;;3.30;99.90;;;;;;5051532;28;20033;-46
2022/03/21 07:12:46;;;;;;;84.97;42.15;;;3.20;99.90;;;;;;5049980;28;20048;-49
2022/03/21 07:15:12;;;;;;;83.75;41.17;;;3.60;99.90;;;;;;5049365;28;21263;-48
2022/03/21 07:17:40;;;;;;;82.63;42.03;;;3.30;99.90;;;;;;5033389;28;22078;-46
2022/03/21 07:20:06;;;;;;;82.28;43.20;;;3.60;99.90;;;;;;5049979;28;20112;-45
2022/03/21 07:22:32;;;;;;;82.95;41.58;;;3.40;99.90;;;;;;5045933;28;20036;-46
2022/03/21 07:24:57;;;;;;;88.88;42.92;;;3.80;99.90;;;;;;5044994;28;20509;-49
2022/03/21 07:27:23;;;;;;;85.93;44.00;;;3.70;99.90;;;;;;5042221;28;20047;-49
2022/03/21 07:29:49;;;;;;;79.22;40.90;;;4.00;99.90;;;;;;5039826;28;20492;-47
2022/03/21 07:32:15;;;;;;;87.70;43.55;;;3.90;99.90;;;;;;5041688;28;20083;-50
2022/03/21 07:34:40;;;;;;;85.93;43.60;;;3.50;99.90;;;;;;5042432;28;20099;-48
2022/03/21 07:37:06;;;;;;;79.70;40.60;;;3.90;99.90;;;;;;5042308;28;20358;-47
2022/03/21 07:39:34;;;;;;;85.85;43.78;;;4.00;99.90;;;;;;5041291;28;20119;-48
2022/03/21 07:42:02;;;;;;;88.10;44.35;;;3.90;99.90;;;;;;5040330;28;20036;-46
2022/03/21 07:47:22;;;;;;;88.95;45.50;;;4.20;99.90;;;;;;5041448;28;20055;-47
2022/03/21 07:49:52;;;;;;;86.72;44.53;;;4.70;99.90;;;;;;5040401;28;20033;-49
2022/03/21 07:52:20;;;;;;;78.85;41.83;;;4.80;99.90;;;;;;5039978;28;20158;-48
2022/03/21 07:54:53;;;;;;;81.97;41.72;;;4.90;99.90;;;;;;5042162;28;20033;-47
2022/03/21 07:57:20;;;;;;;81.03;43.75;;;4.60;99.90;;;;;;5041129;28;20495;-47
2022/03/21 07:59:46;;;;;;;76.80;42.22;;;5.00;99.90;;;;;;5042145;28;20075;-45
2022/03/21 08:02:11;;;;;;;75.43;39.58;;;5.40;99.90;;;;;;5040973;28;20036;-45
2022/03/21 08:04:37;;;;;;;69.53;37.88;;;5.70;99.90;;;;;;5042445;28;20491;-47
2022/03/21 08:07:03;;;;;;;69.28;38.13;;;5.30;99.90;;;;;;5041381;28;20538;-47
2022/03/21 08:09:29;;;;;;;61.65;36.25;;;5.40;99.90;;;;;;5041527;28;20041;-49
2022/03/21 08:11:57;;;;;;;63.88;33.80;;;5.50;99.90;;;;;;5042165;28;20037;-45
2022/03/21 08:14:23;;;;;;;58.67;33.80;;;5.80;99.90;;;;;;5042069;28;20086;-47
2022/03/21 08:16:50;;;;;;;55.50;31.13;;;6.50;99.90;;;;;;5040891;28;20096;-48
2022/03/21 08:19:16;;;;;;;56.83;29.95;;;6.10;99.90;;;;;;5040171;28;20036;-47
2022/03/21 08:21:43;;;;;;;49.60;28.88;;;6.20;99.90;;;;;;5042182;28;20041;-48
2022/03/21 08:24:08;;;;;;;49.03;28.65;;;6.40;99.90;;;;;;5039535;28;20034;-46
2022/03/21 08:26:35;;;;;;;50.50;28.75;;;6.30;99.90;;;;;;5041855;28;20041;-50
2022/03/21 08:29:01;;;;;;;50.08;27.55;;;6.50;99.90;;;;;;5040756;28;20041;-47
2022/03/21 08:31:27;;;;;;;44.70;23.40;;;6.70;99.90;;;;;;5040487;28;20041;-45
2022/03/21 08:33:52;;;;;;;45.67;26.40;;;6.80;99.90;;;;;;5041089;28;20037;-47
2022/03/21 08:36:18;;;;;;;42.17;24.13;;;6.70;99.90;;;;;;5040809;28;20056;-44
2022/03/21 08:38:44;;;;;;;48.78;25.88;;;6.90;99.90;;;;;;5040912;28;20036;-46
2022/03/21 08:41:11;;;;;;;43.38;25.15;;;7.00;99.90;;;;;;5041087;28;20072;-47
2022/03/21 08:43:37;;;;;;;45.28;25.15;;;7.20;99.90;;;;;;5040636;28;20399;-46
2022/03/21 08:46:03;;;;;;;44.22;25.05;;;7.20;99.90;;;;;;5039193;28;20033;-46
2022/03/21 08:51:13;;;;;;;40.47;25.10;;;7.40;99.90;;;;;;5039615;28;20424;-48
2022/03/21 08:53:39;;;;;;;39.60;22.10;;;7.50;99.90;;;;;;5037437;28;20033;-47
2022/03/21 08:56:04;;;;;;;40.10;23.05;;;7.60;99.90;;;;;;5039707;28;20041;-46
2022/03/21 08:58:30;;;;;;;35.03;21.30;;;7.80;99.90;;;;;;5032175;28;20064;-47
2022/03/21 09:00:56;;;;;;;38.80;22.60;;;7.80;99.90;;;;;;5040041;28;20048;-47
2022/03/21 09:03:22;;;;;;;39.15;22.73;;;7.70;99.90;;;;;;5037238;28;20041;-49
2022/03/21 09:05:48;;;;;;;39.22;21.73;;;7.80;99.90;;;;;;5036601;28;20423;-47
2022/03/21 09:08:14;;;;;;;37.05;22.50;;;8.10;99.90;;;;;;5035498;28;20487;-48
2022/03/21 09:10:40;;;;;;;41.72;23.15;;;8.30;99.90;;;;;;5038671;28;20103;-49
2022/03/21 09:13:05;;;;;;;41.70;22.98;;;8.30;99.90;;;;;;5042718;28;20405;-48
2022/03/21 09:15:31;;;;;;;34.65;20.92;;;8.40;99.90;;;;;;5043002;28;20127;-49
2022/03/21 09:17:58;;;;;;;37.85;21.73;;;8.60;99.90;;;;;;5042261;28;20123;-49
2022/03/21 09:20:23;;;;;;;36.78;22.85;;;8.70;99.90;;;;;;5042787;28;20072;-49
2022/03/21 09:22:49;;;;;;;38.58;23.42;;;8.70;99.90;;;;;;5041440;28;20056;-50
2022/03/21 09:25:17;;;;;;;36.45;19.60;;;9.00;99.90;;;;;;5040708;28;20469;-45
2022/03/21 09:27:42;;;;;;;34.83;19.02;;;8.90;99.90;;;;;;5043532;28;20033;-48
2022/03/21 09:30:10;;;;;;;35.25;20.65;;;9.20;99.90;;;;;;5042367;28;20040;-48
2022/03/21 09:32:36;;;;;;;35.25;20.10;;;9.20;99.90;;;;;;5041307;28;20064;-47
2022/03/21 09:35:02;;;;;;;35.22;20.83;;;9.40;99.90;;;;;;5043499;28;20064;-46
2022/03/21 09:37:28;;;;;;;33.72;20.98;;;9.60;99.90;;;;;;5042892;28;20514;-47
2022/03/21 09:39:53;;;;;;;34.95;21.30;;;9.60;99.90;;;;;;5041550;28;20037;-48
2022/03/21 09:42:20;;;;;;;35.05;22.30;;;9.80;99.90;;;;;;5042680;28;20524;-46
2022/03/21 09:44:52;;;;;;;35.30;20.60;;;10.00;99.90;;;;;;5041782;28;20492;-47
2022/03/21 09:50:10;;;;;;;35.75;20.35;;;10.10;99.90;;;;;;5031886;28;20068;-47
2022/03/21 09:52:36;;;;;;;30.23;18.67;;;10.10;99.90;;;;;;5037130;28;20051;-45
2022/03/21 09:55:02;;;;;;;32.65;19.60;;;10.30;99.90;;;;;;5034470;28;20029;-50
2022/03/21 09:57:29;;;;;;;35.17;20.58;;;10.20;99.90;;;;;;5034703;28;20029;-46
2022/03/21 09:59:57;;;;;;;33.97;19.90;;;10.20;99.90;;;;;;5040451;28;20045;-44
2022/03/21 10:02:24;;;;;;;40.45;21.17;;;10.30;99.90;;;;;;5039392;28;20416;-47
2022/03/21 10:04:50;;;;;;;37.92;20.38;;;10.30;99.90;;;;;;5036843;28;20727;-47
2022/03/21 10:07:26;;;;;;;36.58;21.55;;;10.50;99.90;;;;;;5036883;28;20041;-48
2022/03/21 10:10:04;;;;;;;34.20;20.90;;;10.60;99.90;;;;;;5045143;28;20150;-47
2022/03/21 10:12:31;;;;;;;32.42;19.60;;;10.60;99.90;;;;;;5049598;28;20174;-46
2022/03/21 10:14:57;;;;;;;33.17;20.27;;;10.60;99.90;;;;;;5046458;28;20366;-47
2022/03/21 10:17:23;;;;;;;37.30;19.60;;;10.70;99.90;;;;;;5048878;28;20051;-46
2022/03/21 10:19:52;;;;;;;32.15;18.70;;;10.70;99.90;;;;;;5049809;28;20037;-46
2022/03/21 10:22:34;;;;;;;33.17;19.83;;;10.60;99.90;;;;;;5042102;28;20056;-46
2022/03/21 10:25:08;;;;;;;31.35;19.95;;;10.60;99.90;;;;;;5050750;28;20071;-46
2022/03/21 10:27:33;;;;;;;32.58;19.25;;;10.80;99.90;;;;;;5050122;28;20061;-46
2022/03/21 10:30:23;;;;;;;32.42;19.55;;;10.90;99.90;;;;;;5049931;28;20476;-47
2022/03/21 10:32:59;;;;;;;32.30;19.58;;;11.00;99.90;;;;;;5044446;28;20038;-45
2022/03/21 10:35:26;;;;;;;36.35;19.83;;;11.00;99.90;;;;;;5047737;28;20025;-47
2022/03/21 10:37:52;;;;;;;30.25;20.02;;;11.10;99.90;;;;;;5046913;28;20045;-47
2022/03/21 10:40:33;;;;;;;33.13;20.77;;;11.20;99.90;;;;;;5045707;28;20029;-46
2022/03/21 10:43:10;;;;;;;36.35;19.42;;;11.30;99.90;;;;;;5043954;28;20033;-49
2022/03/21 10:45:46;;;;;;;31.40;19.08;;;11.30;99.90;;;;;;5039347;28;20120;-48
2022/03/21 10:48:20;;;;;;;34.88;21.20;;;11.40;99.90;;;;;;5040006;28;20132;-47
2022/03/21 10:50:51;;;;;;;33.05;20.15;;;11.50;99.90;;;;;;5049142;28;20087;-46
2022/03/21 10:53:28;;;;;;;31.50;19.48;;;11.60;99.90;;;;;;5051847;28;20047;-47
2022/03/21 10:56:04;;;;;;;31.60;19.42;;;11.70;99.90;;;;;;5041129;28;20041;-48
2022/03/21 10:58:38;;;;;;;31.13;20.05;;;11.90;99.90;;;;;;5042831;28;20052;-46
2022/03/21 11:01:23;;;;;;;33.30;18.95;;;12.10;99.90;;;;;;5048914;28;20553;-48
2022/03/21 11:03:50;;;;;;;30.80;18.45;;;12.30;99.90;;;;;;5041062;28;20091;-50
2022/03/21 11:06:16;;;;;;;30.63;19.45;;;12.30;99.90;;;;;;5039562;28;20039;-50
2022/03/21 11:08:47;;;;;;;29.73;19.80;;;12.60;99.90;;;;;;5037618;28;20041;-49
2022/03/21 11:11:13;;;;;;;31.33;20.42;;;12.60;99.90;;;;;;5041229;28;20041;-50
2022/03/21 11:13:39;;;;;;;32.58;19.80;;;12.60;99.90;;;;;;5045908;28;20037;-48
2022/03/21 11:16:06;;;;;;;31.63;18.85;;;12.70;99.90;;;;;;5043131;28;20050;-50
2022/03/21 11:18:32;;;;;;;34.55;19.98;;;12.70;99.90;;;;;;5043552;28;20132;-51
2022/03/21 11:20:58;;;;;;;34.60;18.95;;;12.70;99.90;;;;;;5040045;28;20555;-49
2022/03/21 11:23:25;;;;;;;28.10;18.30;;;13.00;99.90;;;;;;5048697;28;20040;-49
2022/03/21 11:26:03;;;;;;;29.52;18.42;;;13.10;99.90;;;;;;5048705;28;20102;-43
2022/03/21 11:29:10;;;;;;;30.25;17.42;;;13.20;99.90;;;;;;5046271;28;20048;-48
2022/03/21 11:32:00;;;;;;;25.30;16.30;;;13.30;99.90;;;;;;5048585;28;20051;-45
2022/03/21 11:34:32;;;;;;;25.08;16.63;;;13.30;99.90;;;;;;5043791;28;20089;-47
2022/03/21 11:36:58;;;;;;;27.42;16.85;;;13.50;99.90;;;;;;5049791;28;20045;-48
2022/03/21 11:39:25;;;;;;;26.00;17.55;;;13.60;99.90;;;;;;5047888;28;20048;-45
2022/03/21 11:42:10;;;;;;;25.05;16.48;;;13.70;99.90;;;;;;5044984;28;20063;-47
2022/03/21 11:44:38;;;;;;;28.90;18.38;;;13.90;99.90;;;;;;5045906;28;20048;-47
2022/03/21 11:47:28;;;;;;;26.50;17.35;;;13.80;99.90;;;;;;5048354;28;20446;-45
2022/03/21 11:49:55;;;;;;;25.60;15.95;;;14.00;99.90;;;;;;5045127;28;20045;-46
2022/03/21 11:52:22;;;;;;;26.83;16.52;;;14.00;99.90;;;;;;5047854;28;20040;-47
2022/03/21 11:54:48;;;;;;;27.50;17.48;;;14.00;99.90;;;;;;5049365;28;20040;-46
2022/03/21 11:57:16;;;;;;;27.25;16.67;;;14.20;99.90;;;;;;5049537;28;20037;-46
2022/03/21 11:59:42;;;;;;;27.08;16.65;;;14.50;99.90;;;;;;5047029;28;20040;-46
2022/03/21 12:02:08;;;;;;;28.17;17.27;;;14.40;99.90;;;;;;5047854;28;20033;-47
2022/03/21 12:04:34;;;;;;;29.23;18.98;;;14.40;99.90;;;;;;5047167;28;20033;-48
2022/03/21 12:07:20;;;;;;;23.77;14.98;;;14.70;99.90;;;;;;5045986;28;20033;-44
2022/03/21 12:09:50;;;;;;;23.75;14.48;;;15.00;99.30;;;;;;5048634;28;20049;-49
2022/03/21 12:12:17;;;;;;;42.63;17.80;;;15.20;98.40;;;;;;5038367;28;20135;-46
2022/03/21 12:14:48;;;;;;;28.13;16.23;;;15.20;98.00;;;;;;5043829;28;20079;-52
2022/03/21 12:17:13;;;;;;;26.88;17.13;;;15.20;96.90;;;;;;5047934;28;20085;-49
2022/03/21 12:19:48;;;;;;;28.48;15.90;;;15.20;99.90;;;;;;5043966;28;20084;-53
2022/03/21 12:22:42;;;;;;;24.63;15.93;;;15.60;98.20;;;;;;5039448;28;20044;-44
2022/03/21 12:25:28;;;;;;;26.77;15.82;;;15.80;95.70;;;;;;5035177;28;20549;-45
2022/03/21 12:27:56;;;;;;;28.40;17.13;;;15.90;99.30;;;;;;5040776;28;20048;-45
2022/03/21 12:30:23;;;;;;;26.08;15.60;;;16.20;98.20;;;;;;5037595;28;20116;-47
2022/03/21 12:33:04;;;;;;;28.25;16.20;;;16.40;95.10;;;;;;5032374;28;20067;-50
2022/03/21 12:35:34;;;;;;;26.83;17.20;;;16.60;93.10;;;;;;5047891;28;20033;-48
2022/03/21 12:38:06;;;;;;;23.55;14.93;;;16.60;94.50;;;;;;5049691;28;20080;-49
2022/03/21 12:40:35;;;;;;;23.83;15.18;;;16.90;96.70;;;;;;5049693;28;20032;-49
2022/03/21 12:43:02;;;;;;;27.33;16.50;;;16.80;94.30;;;;;;5048428;28;20037;-46
2022/03/21 12:45:29;;;;;;;25.58;15.20;;;16.70;91.00;;;;;;5049461;28;20647;-47
2022/03/21 12:48:05;;;;;;;27.25;16.25;;;16.80;91.80;;;;;;5049444;28;20051;-47
2022/03/21 12:50:32;;;;;;;25.48;14.95;;;16.90;92.40;;;;;;5046512;28;20119;-45
2022/03/21 12:53:00;;;;;;;23.48;14.20;;;16.60;94.30;;;;;;5048845;28;20048;-45
2022/03/21 12:55:27;;;;;;;24.63;15.38;;;16.50;90.40;;;;;;5050121;28;20111;-48
2022/03/21 12:58:04;;;;;;;22.98;14.13;;;16.60;91.50;;;;;;5050152;28;20041;-47
2022/03/21 13:00:34;;;;;;;27.55;15.43;;;17.30;93.40;;;;;;5049932;28;20033;-45
2022/03/21 13:03:04;;;;;;;23.35;14.48;;;17.20;91.10;;;;;;5048815;28;20467;-46